Time;durP1;ratioP1;P1;durP2;ratioP2;P2;SDS_P1;SDS_P2;PMS_P1;PMS_P2;Temp;Humidity;BMP_temperature;BMP_pressure;BME280_temperature;BME280_humidity;BME280_pressure;Samples;Min_cycle;Max_cycle;Signal;HPM_P1;HPM_P2
2021/10/14 00:00:36;;;;;;;0.77;0.27;;;5.60;99.90;;;;;;5013427;28;20454;-80
2021/10/14 00:03:05;;;;;;;0.40;0.40;;;5.60;99.90;;;;;;5013439;28;20447;-80
2021/10/14 00:05:32;;;;;;;0.30;0.30;;;5.60;99.90;;;;;;5013473;28;20447;-79
2021/10/14 00:08:00;;;;;;;0.40;0.40;;;5.60;99.90;;;;;;5013467;28;20448;-80
2021/10/14 00:10:28;;;;;;;0.40;0.40;;;5.60;99.90;;;;;;5013374;28;20451;-80
2021/10/14 00:12:55;;;;;;;0.30;0.30;;;5.60;99.90;;;;;;5016167;28;20486;-80
2021/10/14 00:15:23;;;;;;;1.23;0.47;;;5.50;99.90;;;;;;5016733;28;20827;-80
2021/10/14 00:17:49;;;;;;;0.30;0.30;;;5.40;99.90;;;;;;5016815;28;20463;-80
2021/10/14 00:20:16;;;;;;;0.63;0.63;;;5.40;99.90;;;;;;5016940;28;20451;-80
2021/10/14 00:22:43;;;;;;;0.70;0.53;;;5.50;99.90;;;;;;5016669;28;20467;-80
2021/10/14 00:25:11;;;;;;;0.70;0.43;;;5.50;99.90;;;;;;5029092;28;20453;-79
2021/10/14 00:27:39;;;;;;;0.30;0.30;;;5.50;99.90;;;;;;5021561;28;20439;-80
2021/10/14 00:30:06;;;;;;;0.40;0.40;;;5.50;99.90;;;;;;5019075;28;20447;-80
2021/10/14 00:32:33;;;;;;;0.30;0.20;;;5.60;99.90;;;;;;5018597;28;20483;-80
2021/10/14 00:35:00;;;;;;;0.40;0.30;;;5.60;99.90;;;;;;5018920;28;20458;-80
2021/10/14 00:37:26;;;;;;;0.30;0.30;;;5.60;99.90;;;;;;5018722;28;20443;-80
2021/10/14 00:39:53;;;;;;;0.30;0.30;;;5.70;99.90;;;;;;5018924;28;20458;-80
2021/10/14 00:42:21;;;;;;;0.30;0.30;;;5.70;99.90;;;;;;5018947;28;20463;-80
2021/10/14 00:44:50;;;;;;;1.43;1.43;;;5.70;99.90;;;;;;5019958;28;20817;-79
2021/10/14 00:47:18;;;;;;;0.40;0.40;;;5.80;99.90;;;;;;5020914;28;20451;-80
2021/10/14 00:49:44;;;;;;;0.67;0.67;;;5.70;99.90;;;;;;5019904;28;20479;-80
2021/10/14 00:52:11;;;;;;;0.37;0.30;;;5.80;99.90;;;;;;5019920;28;20495;-80
2021/10/14 00:54:39;;;;;;;0.40;0.40;;;5.70;99.90;;;;;;5019700;28;20452;-80
2021/10/14 00:57:06;;;;;;;0.50;0.50;;;5.70;99.90;;;;;;5019528;28;20443;-80
2021/10/14 00:59:36;;;;;;;0.30;0.20;;;5.70;99.90;;;;;;5019512;28;20448;-80
2021/10/14 01:02:03;;;;;;;0.40;0.40;;;5.60;99.90;;;;;;5019504;28;20506;-80
2021/10/14 01:04:30;;;;;;;0.30;0.20;;;5.60;99.90;;;;;;5019469;28;20796;-80
2021/10/14 01:06:57;;;;;;;0.40;0.40;;;5.50;99.90;;;;;;5019742;28;20459;-80
2021/10/14 01:09:24;;;;;;;0.30;0.30;;;5.50;99.90;;;;;;5019108;28;20455;-80
2021/10/14 01:11:50;;;;;;;0.30;0.30;;;5.40;99.90;;;;;;5019203;28;20483;-79
2021/10/14 01:14:17;;;;;;;0.90;0.67;;;5.40;99.90;;;;;;5015665;28;20444;-80
2021/10/14 01:16:47;;;;;;;0.30;0.30;;;5.30;99.90;;;;;;5015856;28;20436;-80
2021/10/14 01:19:15;;;;;;;0.30;0.20;;;5.30;99.90;;;;;;5015465;28;20780;-80
2021/10/14 01:21:43;;;;;;;0.33;0.30;;;5.30;99.90;;;;;;5015697;28;20459;-81
2021/10/14 01:24:11;;;;;;;0.30;0.27;;;5.30;99.90;;;;;;5014982;28;20444;-80
2021/10/14 01:26:39;;;;;;;0.30;0.30;;;5.20;99.90;;;;;;5015330;28;20458;-80
2021/10/14 01:29:06;;;;;;;0.30;0.30;;;5.20;99.90;;;;;;5015713;28;20455;-80
2021/10/14 01:31:33;;;;;;;0.30;0.30;;;5.10;99.90;;;;;;5015492;28;20472;-80
2021/10/14 01:34:00;;;;;;;0.30;0.30;;;5.10;99.90;;;;;;5015239;28;20803;-80
2021/10/14 01:36:27;;;;;;;0.50;0.50;;;5.00;99.90;;;;;;5016130;28;20452;-80
2021/10/14 01:38:55;;;;;;;0.30;0.30;;;5.00;99.90;;;;;;5015390;28;20458;-80
2021/10/14 01:41:22;;;;;;;0.30;0.20;;;5.00;99.90;;;;;;5015300;28;20468;-80
2021/10/14 01:43:49;;;;;;;0.30;0.27;;;5.00;99.90;;;;;;5015637;28;20456;-80
2021/10/14 01:46:16;;;;;;;1.57;1.47;;;4.90;99.90;;;;;;5015090;28;20436;-80
2021/10/14 01:48:43;;;;;;;0.30;0.30;;;4.80;99.90;;;;;;5014751;28;21010;-80
2021/10/14 01:51:11;;;;;;;0.30;0.30;;;4.90;99.90;;;;;;5014931;28;20479;-80
2021/10/14 01:53:38;;;;;;;0.30;0.20;;;4.90;99.90;;;;;;5015170;28;20582;-80
2021/10/14 01:56:06;;;;;;;0.30;0.20;;;4.90;99.90;;;;;;5015000;28;20447;-80
2021/10/14 01:58:33;;;;;;;0.40;0.30;;;5.00;99.90;;;;;;5015021;28;20806;-80
2021/10/14 02:01:00;;;;;;;0.50;0.50;;;5.00;99.90;;;;;;5016593;28;20471;-80
2021/10/14 02:03:27;;;;;;;0.30;0.30;;;4.90;99.90;;;;;;5015404;28;20448;-80
2021/10/14 02:05:54;;;;;;;0.30;0.20;;;4.90;99.90;;;;;;5014981;28;20451;-80
2021/10/14 02:08:20;;;;;;;0.30;0.20;;;4.90;99.90;;;;;;5014898;28;20448;-80
2021/10/14 02:10:47;;;;;;;1.07;0.40;;;5.00;99.90;;;;;;5014753;28;20488;-80
2021/10/14 02:13:15;;;;;;;0.30;0.30;;;4.90;99.90;;;;;;5014664;28;20486;-80
2021/10/14 02:15:42;;;;;;;0.50;0.50;;;5.00;99.90;;;;;;5014872;28;20481;-80
2021/10/14 02:18:09;;;;;;;0.30;0.20;;;5.00;99.90;;;;;;5014739;28;20478;-80
2021/10/14 02:20:35;;;;;;;0.30;0.27;;;5.00;99.90;;;;;;5014518;28;20452;-80
2021/10/14 02:23:02;;;;;;;0.73;0.33;;;5.00;99.90;;;;;;5014894;28;20466;-80
2021/10/14 02:25:29;;;;;;;0.30;0.20;;;5.00;99.90;;;;;;5014735;28;20466;-80
2021/10/14 02:27:56;;;;;;;0.30;0.20;;;4.90;99.90;;;;;;5014751;28;20470;-80
2021/10/14 02:30:24;;;;;;;0.30;0.30;;;5.00;99.90;;;;;;5014325;28;20447;-80
2021/10/14 02:32:51;;;;;;;0.30;0.30;;;5.00;99.90;;;;;;5014521;28;20475;-80
2021/10/14 02:35:17;;;;;;;0.30;0.30;;;5.00;99.90;;;;;;5014381;28;20451;-80
2021/10/14 02:37:44;;;;;;;0.30;0.30;;;4.90;99.90;;;;;;5014240;28;20826;-80
2021/10/14 02:40:12;;;;;;;0.30;0.30;;;4.90;99.90;;;;;;5014425;28;20452;-80
2021/10/14 02:42:39;;;;;;;0.60;0.60;;;4.90;99.90;;;;;;5014165;28;20467;-80
2021/10/14 02:45:06;;;;;;;0.50;0.30;;;4.90;99.90;;;;;;5014839;28;20455;-80
2021/10/14 02:47:35;;;;;;;0.30;0.30;;;4.90;99.90;;;;;;5014148;28;20459;-80
2021/10/14 02:50:01;;;;;;;0.30;0.20;;;4.90;99.90;;;;;;5014420;28;20440;-80
2021/10/14 02:52:28;;;;;;;0.30;0.30;;;5.00;99.90;;;;;;5014042;28;20995;-80
2021/10/14 02:54:55;;;;;;;0.30;0.30;;;5.00;99.90;;;;;;5015401;28;20450;-80
2021/10/14 02:57:22;;;;;;;0.30;0.20;;;5.00;99.90;;;;;;5017543;28;20444;-80
2021/10/14 02:59:48;;;;;;;0.30;0.30;;;5.00;99.90;;;;;;5016613;28;20436;-80
2021/10/14 03:02:15;;;;;;;0.40;0.40;;;4.90;99.90;;;;;;5014383;28;20470;-80
2021/10/14 03:04:43;;;;;;;0.30;0.30;;;4.90;99.90;;;;;;5014499;28;20940;-80
2021/10/14 03:07:10;;;;;;;0.33;0.30;;;4.90;99.90;;;;;;5015415;28;20443;-80
2021/10/14 03:09:37;;;;;;;0.30;0.20;;;4.80;99.90;;;;;;5014835;28;20451;-80
2021/10/14 03:12:04;;;;;;;0.30;0.20;;;4.90;99.90;;;;;;5013718;28;20472;-80
2021/10/14 03:14:31;;;;;;;0.30;0.30;;;4.80;99.90;;;;;;5015316;28;20440;-80
2021/10/14 03:16:57;;;;;;;0.40;0.30;;;4.80;99.90;;;;;;5013553;28;20958;-80
2021/10/14 03:19:24;;;;;;;0.30;0.30;;;4.80;99.90;;;;;;5013863;28;20452;-80
2021/10/14 03:21:52;;;;;;;0.30;0.30;;;4.80;99.90;;;;;;5013614;28;20471;-80
2021/10/14 03:24:19;;;;;;;0.30;0.30;;;4.80;99.90;;;;;;5013731;28;20447;-80
2021/10/14 03:26:46;;;;;;;0.30;0.30;;;4.80;99.90;;;;;;5013482;28;20458;-80
2021/10/14 03:29:12;;;;;;;0.30;0.27;;;4.80;99.90;;;;;;5014011;28;20451;-80
2021/10/14 03:31:39;;;;;;;0.40;0.30;;;4.80;99.90;;;;;;5013727;28;20471;-80
2021/10/14 03:34:06;;;;;;;0.57;0.57;;;4.80;99.90;;;;;;5013447;28;20479;-80
2021/10/14 03:36:32;;;;;;;0.30;0.30;;;4.70;99.90;;;;;;5013711;28;20456;-80
2021/10/14 03:39:01;;;;;;;0.30;0.20;;;4.70;99.90;;;;;;5013454;28;20463;-80
2021/10/14 03:41:27;;;;;;;0.30;0.20;;;4.60;99.90;;;;;;5013618;28;20471;-80
2021/10/14 03:43:54;;;;;;;0.30;0.30;;;4.60;99.90;;;;;;5013697;28;20448;-80
2021/10/14 03:46:21;;;;;;;0.30;0.30;;;4.50;99.90;;;;;;5014052;28;20451;-80
2021/10/14 03:48:48;;;;;;;0.30;0.30;;;4.50;99.90;;;;;;5017071;28;20489;-80
2021/10/14 03:51:14;;;;;;;0.30;0.30;;;4.40;99.90;;;;;;5016936;28;20460;-80
2021/10/14 03:53:41;;;;;;;0.40;0.40;;;4.40;99.90;;;;;;5017363;28;20482;-80
2021/10/14 03:56:09;;;;;;;0.50;0.50;;;4.30;99.90;;;;;;5017344;28;20450;-80
2021/10/14 03:58:36;;;;;;;0.30;0.30;;;4.30;99.90;;;;;;5017248;28;20943;-79
2021/10/14 04:01:03;;;;;;;0.30;0.30;;;4.50;99.90;;;;;;5017273;28;20467;-80
2021/10/14 04:03:29;;;;;;;0.30;0.30;;;4.40;99.90;;;;;;5016914;28;20450;-80
2021/10/14 04:05:56;;;;;;;0.40;0.30;;;4.40;99.90;;;;;;5017020;28;20447;-79
2021/10/14 04:08:23;;;;;;;0.40;0.30;;;4.40;99.90;;;;;;5017223;28;20907;-80
2021/10/14 04:10:50;;;;;;;0.30;0.30;;;4.40;99.90;;;;;;5016895;28;20474;-79
2021/10/14 04:13:18;;;;;;;0.30;0.30;;;4.40;99.90;;;;;;5016866;28;20517;-79
2021/10/14 04:15:44;;;;;;;0.40;0.40;;;4.40;99.90;;;;;;5018344;28;20454;-80
2021/10/14 04:18:12;;;;;;;0.33;0.27;;;4.40;99.90;;;;;;5017085;28;20458;-80
2021/10/14 04:20:39;;;;;;;0.30;0.20;;;4.40;99.90;;;;;;5016895;28;20454;-80
2021/10/14 04:23:06;;;;;;;0.30;0.20;;;4.40;99.90;;;;;;5017031;28;20439;-79
2021/10/14 04:25:32;;;;;;;0.40;0.30;;;4.40;99.90;;;;;;5017081;28;20451;-79
2021/10/14 04:27:59;;;;;;;0.30;0.30;;;4.40;99.90;;;;;;5016835;28;20455;-80
2021/10/14 04:30:27;;;;;;;0.30;0.30;;;4.40;99.90;;;;;;5016855;28;20455;-79
2021/10/14 04:32:54;;;;;;;0.30;0.20;;;4.40;99.90;;;;;;5017275;28;20486;-79
2021/10/14 04:35:22;;;;;;;0.30;0.20;;;4.40;99.90;;;;;;5017156;28;20464;-80
2021/10/14 04:37:49;;;;;;;0.30;0.30;;;4.40;99.90;;;;;;5016427;28;20502;-80
2021/10/14 04:40:16;;;;;;;0.30;0.30;;;4.30;99.90;;;;;;5016499;28;20447;-79
2021/10/14 04:42:42;;;;;;;0.30;0.20;;;4.40;99.90;;;;;;5016072;28;20475;-79
2021/10/14 04:45:10;;;;;;;0.30;0.30;;;4.30;99.90;;;;;;5016245;28;20447;-79
2021/10/14 04:47:38;;;;;;;0.60;0.40;;;4.40;99.90;;;;;;5016011;28;20462;-79
2021/10/14 04:50:07;;;;;;;0.30;0.30;;;4.40;99.90;;;;;;5016678;28;20498;-79
2021/10/14 04:52:34;;;;;;;0.50;0.50;;;4.40;99.90;;;;;;5017315;28;21057;-79
2021/10/14 04:55:00;;;;;;;0.30;0.30;;;4.40;99.90;;;;;;5017172;28;20485;-79
2021/10/14 04:57:27;;;;;;;0.40;0.30;;;4.50;99.90;;;;;;5017067;28;20456;-79
2021/10/14 04:59:54;;;;;;;0.30;0.20;;;4.50;99.90;;;;;;5016353;28;20451;-79
2021/10/14 05:02:21;;;;;;;0.30;0.30;;;4.50;99.90;;;;;;5016495;28;20975;-80
2021/10/14 05:04:49;;;;;;;0.40;0.40;;;4.50;99.90;;;;;;5016549;28;20454;-80
2021/10/14 05:07:16;;;;;;;0.30;0.27;;;4.50;99.90;;;;;;5016155;28;20438;-79
2021/10/14 05:09:42;;;;;;;0.30;0.20;;;4.50;99.90;;;;;;5016158;28;20428;-80
2021/10/14 05:12:09;;;;;;;0.30;0.23;;;4.50;99.90;;;;;;5015946;28;20987;-80
2021/10/14 05:14:36;;;;;;;0.30;0.30;;;4.50;99.90;;;;;;5015971;28;20479;-80
2021/10/14 05:17:03;;;;;;;0.30;0.20;;;4.60;99.90;;;;;;5017083;28;20448;-79
2021/10/14 05:19:30;;;;;;;0.30;0.20;;;4.60;99.90;;;;;;5016092;28;20459;-80
2021/10/14 05:21:58;;;;;;;0.30;0.20;;;4.60;99.90;;;;;;5016052;28;20463;-80
2021/10/14 05:24:25;;;;;;;0.30;0.30;;;4.70;99.90;;;;;;5015842;28;20454;-79
2021/10/14 05:26:51;;;;;;;0.30;0.30;;;4.70;99.90;;;;;;5015539;28;20943;-80
2021/10/14 05:29:18;;;;;;;0.30;0.30;;;4.70;99.90;;;;;;5018797;28;20455;-81
2021/10/14 05:31:45;;;;;;;0.30;0.20;;;4.70;99.90;;;;;;5029106;28;20464;-80
2021/10/14 05:34:11;;;;;;;0.30;0.30;;;4.70;99.90;;;;;;5029685;28;20490;-80
2021/10/14 05:36:38;;;;;;;0.30;0.30;;;4.70;99.90;;;;;;5030628;28;20455;-80
2021/10/14 05:39:06;;;;;;;0.30;0.20;;;4.70;99.90;;;;;;5031094;28;20439;-80
2021/10/14 05:41:33;;;;;;;0.30;0.30;;;4.80;99.90;;;;;;5029513;28;20475;-80
2021/10/14 05:44:00;;;;;;;0.70;0.30;;;4.80;99.90;;;;;;5019308;28;20953;-80
2021/10/14 05:46:26;;;;;;;0.30;0.30;;;4.80;99.90;;;;;;5019057;28;20459;-80
2021/10/14 05:48:53;;;;;;;0.30;0.20;;;4.70;99.90;;;;;;5018047;28;20846;-80
2021/10/14 05:51:20;;;;;;;2.93;0.30;;;4.70;99.90;;;;;;5018973;28;20471;-80
2021/10/14 05:53:47;;;;;;;0.30;0.23;;;4.70;99.90;;;;;;5018779;28;20480;-80
2021/10/14 05:56:15;;;;;;;0.30;0.30;;;4.70;99.90;;;;;;5019209;28;20440;-80
2021/10/14 05:58:41;;;;;;;0.30;0.20;;;4.70;99.90;;;;;;5018206;28;20459;-79
2021/10/14 06:01:08;;;;;;;0.30;0.27;;;4.70;99.90;;;;;;5017916;28;20467;-79
2021/10/14 06:03:37;;;;;;;0.30;0.20;;;4.70;99.90;;;;;;5018145;28;20452;-80
2021/10/14 06:06:03;;;;;;;0.30;0.20;;;4.80;99.90;;;;;;5018022;28;20456;-80
2021/10/14 06:08:30;;;;;;;0.33;0.30;;;4.80;99.90;;;;;;5018236;28;20452;-79
2021/10/14 06:10:57;;;;;;;1.10;0.40;;;4.80;99.90;;;;;;5017633;28;20471;-79
2021/10/14 06:13:25;;;;;;;0.37;0.30;;;4.80;99.90;;;;;;5018148;28;20502;-79
2021/10/14 06:15:52;;;;;;;0.30;0.20;;;4.80;99.90;;;;;;5017973;28;20460;-79
2021/10/14 06:18:19;;;;;;;0.30;0.27;;;4.80;99.90;;;;;;5018153;28;20461;-79
2021/10/14 06:20:46;;;;;;;0.30;0.20;;;4.70;99.90;;;;;;5017707;28;20478;-79
2021/10/14 06:23:13;;;;;;;0.30;0.30;;;4.70;99.90;;;;;;5018073;28;20443;-79
2021/10/14 06:25:40;;;;;;;0.30;0.30;;;4.70;99.90;;;;;;5017843;28;20454;-79
2021/10/14 06:28:06;;;;;;;0.40;0.40;;;4.80;99.90;;;;;;5017383;28;20439;-80
2021/10/14 06:30:34;;;;;;;0.50;0.50;;;4.80;99.90;;;;;;5017321;28;20458;-80
2021/10/14 06:33:09;;;;;;;0.30;0.20;;;4.80;99.90;;;;;;5015591;28;20454;-81
2021/10/14 06:35:36;;;;;;;0.30;0.20;;;4.80;99.90;;;;;;5016644;28;20518;-80
2021/10/14 06:38:03;;;;;;;0.30;0.30;;;4.90;99.90;;;;;;5015678;28;20447;-80
2021/10/14 06:40:29;;;;;;;1.53;1.37;;;4.90;99.90;;;;;;5015580;28;20448;-80
2021/10/14 06:42:56;;;;;;;0.30;0.30;;;5.00;99.90;;;;;;5015251;28;20451;-80
2021/10/14 06:45:23;;;;;;;0.40;0.30;;;5.00;99.90;;;;;;5015076;28;20438;-80
2021/10/14 06:47:51;;;;;;;0.67;0.60;;;5.00;99.90;;;;;;5015125;28;20482;-80
2021/10/14 06:50:18;;;;;;;0.30;0.30;;;5.00;99.90;;;;;;5016799;28;20447;-80
2021/10/14 06:52:45;;;;;;;0.50;0.30;;;5.10;99.90;;;;;;5016823;28;20471;-80
2021/10/14 06:55:11;;;;;;;0.30;0.20;;;5.10;99.90;;;;;;5015825;28;20471;-80
2021/10/14 06:57:38;;;;;;;0.30;0.30;;;5.10;99.90;;;;;;5017283;28;20829;-80
2021/10/14 07:00:07;;;;;;;0.30;0.30;;;5.20;99.90;;;;;;5015628;28;20907;-80
2021/10/14 07:02:35;;;;;;;0.30;0.30;;;5.20;99.90;;;;;;5016152;28;20467;-80
2021/10/14 07:05:04;;;;;;;0.30;0.20;;;5.30;99.90;;;;;;5016175;28;20432;-80
2021/10/14 07:07:30;;;;;;;0.30;0.27;;;5.40;99.90;;;;;;5015677;28;20443;-79
2021/10/14 07:09:57;;;;;;;0.30;0.30;;;5.40;99.90;;;;;;5015807;28;20454;-79
2021/10/14 07:12:28;;;;;;;0.30;0.30;;;5.50;99.90;;;;;;5015943;28;20467;-80
2021/10/14 07:14:55;;;;;;;0.40;0.40;;;5.50;99.90;;;;;;5016055;28;20535;-80
2021/10/14 07:17:22;;;;;;;0.30;0.30;;;5.60;99.90;;;;;;5015807;28;20455;-80
2021/10/14 07:19:49;;;;;;;0.30;0.20;;;5.60;99.90;;;;;;5015076;28;20447;-80
2021/10/14 07:22:17;;;;;;;0.40;0.30;;;5.70;99.90;;;;;;5016047;28;20476;-79
2021/10/14 07:24:43;;;;;;;0.30;0.20;;;5.70;99.90;;;;;;5017685;28;20451;-79
2021/10/14 07:27:10;;;;;;;0.30;0.30;;;5.80;99.90;;;;;;5017292;28;20946;-80
2021/10/14 07:29:37;;;;;;;0.40;0.30;;;5.90;99.90;;;;;;5017495;28;20939;-79
2021/10/14 07:32:06;;;;;;;0.70;0.57;;;6.00;99.90;;;;;;5017400;28;20478;-80
2021/10/14 07:34:33;;;;;;;0.30;0.27;;;6.30;99.90;;;;;;5017149;28;20885;-80
2021/10/14 07:37:00;;;;;;;0.30;0.30;;;6.30;99.90;;;;;;5017068;28;20970;-80
2021/10/14 07:39:28;;;;;;;0.30;0.30;;;6.50;99.90;;;;;;5017230;28;20466;-79
2021/10/14 07:41:55;;;;;;;0.33;0.27;;;6.50;99.90;;;;;;5017093;28;20468;-79
2021/10/14 07:44:22;;;;;;;0.40;0.30;;;6.60;99.90;;;;;;5017133;28;20448;-80
2021/10/14 07:46:48;;;;;;;0.30;0.30;;;6.70;99.90;;;;;;5017150;28;20458;-78
2021/10/14 07:49:17;;;;;;;0.30;0.20;;;6.70;99.90;;;;;;5016700;28;20486;-79
2021/10/14 07:51:44;;;;;;;0.30;0.30;;;6.80;99.90;;;;;;5016546;28;20874;-79
2021/10/14 07:54:11;;;;;;;0.30;0.30;;;6.90;99.90;;;;;;5016850;28;20488;-79
2021/10/14 07:56:39;;;;;;;0.30;0.30;;;7.00;99.90;;;;;;5016924;28;20459;-79
2021/10/14 07:59:06;;;;;;;0.37;0.30;;;7.10;99.90;;;;;;5016848;28;20447;-79
2021/10/14 08:01:33;;;;;;;0.40;0.33;;;7.10;99.90;;;;;;5016729;28;20471;-79
2021/10/14 08:04:02;;;;;;;0.83;0.50;;;7.10;99.90;;;;;;5016788;28;20455;-79
2021/10/14 08:06:29;;;;;;;0.37;0.37;;;7.00;99.90;;;;;;5016506;28;20806;-79
2021/10/14 08:08:55;;;;;;;0.30;0.30;;;7.00;99.90;;;;;;5016727;28;20448;-79
2021/10/14 08:11:22;;;;;;;0.30;0.30;;;7.00;99.90;;;;;;5016540;28;20468;-79
2021/10/14 08:13:52;;;;;;;0.30;0.30;;;7.20;99.90;;;;;;5016288;28;20799;-80
2021/10/14 08:16:19;;;;;;;0.43;0.43;;;7.40;99.90;;;;;;5016431;28;20454;-79
2021/10/14 08:18:46;;;;;;;0.40;0.33;;;7.60;99.90;;;;;;5016189;28;20947;-80
2021/10/14 08:21:13;;;;;;;0.30;0.30;;;7.80;99.90;;;;;;5016097;28;20975;-79
2021/10/14 08:23:40;;;;;;;1.70;0.40;;;8.00;99.90;;;;;;5016150;28;20439;-80
2021/10/14 08:26:08;;;;;;;0.30;0.30;;;8.10;99.90;;;;;;5016041;28;20973;-80
2021/10/14 08:28:35;;;;;;;0.40;0.30;;;8.10;99.90;;;;;;5016186;28;20818;-79
2021/10/14 08:31:04;;;;;;;0.60;0.60;;;8.20;99.90;;;;;;5015884;28;20835;-79
2021/10/14 08:33:30;;;;;;;0.30;0.20;;;8.30;99.90;;;;;;5016041;28;20452;-80
2021/10/14 08:35:57;;;;;;;0.40;0.30;;;8.30;99.90;;;;;;5016110;28;20479;-80
2021/10/14 08:38:24;;;;;;;0.30;0.20;;;8.30;99.90;;;;;;5015839;28;20448;-81
2021/10/14 08:40:52;;;;;;;0.40;0.30;;;8.50;99.90;;;;;;5015990;28;20471;-81
2021/10/14 08:43:21;;;;;;;0.40;0.30;;;8.70;99.90;;;;;;5016042;28;20473;-79
2021/10/14 08:45:49;;;;;;;0.40;0.30;;;9.10;99.90;;;;;;5015985;28;20452;-80
2021/10/14 08:48:18;;;;;;;0.40;0.30;;;9.30;99.90;;;;;;5015657;28;20476;-80
2021/10/14 08:50:48;;;;;;;0.90;0.30;;;9.60;99.90;;;;;;5015815;28;20468;-80
2021/10/14 08:53:15;;;;;;;0.73;0.40;;;9.80;99.90;;;;;;5015806;28;20412;-80
2021/10/14 08:55:42;;;;;;;0.93;0.73;;;10.00;99.90;;;;;;5015671;28;20483;-81
2021/10/14 08:58:10;;;;;;;0.40;0.33;;;10.50;99.90;;;;;;5015767;28;20435;-80
2021/10/14 09:00:40;;;;;;;0.40;0.33;;;11.10;99.90;;;;;;5015650;28;20424;-80
2021/10/14 09:03:23;;;;;;;2.00;0.73;;;12.10;99.90;;;;;;5015403;28;20907;-81
2021/10/14 09:05:51;;;;;;;0.43;0.40;;;13.10;99.90;;;;;;5015639;28;20432;-80
2021/10/14 09:08:35;;;;;;;0.40;0.30;;;13.80;99.90;;;;;;5015301;28;20413;-80
2021/10/14 09:11:10;;;;;;;0.40;0.30;;;13.70;99.90;;;;;;5015384;28;20471;-80
2021/10/14 09:13:37;;;;;;;1.27;0.30;;;13.90;99.90;;;;;;5015505;28;20497;-80
2021/10/14 09:16:22;;;;;;;2.27;0.67;;;14.20;99.90;;;;;;5015368;28;20862;-79
2021/10/14 09:18:49;;;;;;;1.93;0.47;;;13.90;99.90;;;;;;5015393;28;20427;-80
2021/10/14 09:21:26;;;;;;;0.40;0.40;;;14.10;99.90;;;;;;5015242;28;20471;-80
2021/10/14 09:23:54;;;;;;;0.40;0.33;;;14.00;99.90;;;;;;5014959;28;20446;-80
2021/10/14 09:26:32;;;;;;;1.30;0.70;;;14.00;99.90;;;;;;5014964;28;20524;-80
2021/10/14 09:29:07;;;;;;;0.40;0.30;;;13.90;99.90;;;;;;5015201;28;20443;-80
2021/10/14 09:31:47;;;;;;;0.40;0.40;;;13.60;99.90;;;;;;5015706;28;20478;-80
2021/10/14 09:34:39;;;;;;;1.43;0.60;;;13.70;99.90;;;;;;5014920;28;20435;-79
2021/10/14 09:37:30;;;;;;;1.87;1.70;;;13.80;99.90;;;;;;5000428;28;20459;-80
2021/10/14 09:39:58;;;;;;;0.40;0.30;;;13.90;99.90;;;;;;5014654;28;20436;-79
2021/10/14 09:42:42;;;;;;;0.80;0.60;;;14.00;99.90;;;;;;5014565;28;20994;-79
2021/10/14 09:45:24;;;;;;;1.70;0.57;;;14.30;99.90;;;;;;5013894;28;20515;-80
2021/10/14 09:48:08;;;;;;;3.10;0.40;;;14.30;99.90;;;;;;5014623;28;20483;-81
2021/10/14 09:50:36;;;;;;;0.60;0.60;;;14.60;99.90;;;;;;5014620;28;20440;-79
2021/10/14 09:53:07;;;;;;;1.13;0.50;;;14.90;99.90;;;;;;5014714;28;20805;-79
2021/10/14 09:55:34;;;;;;;3.60;0.77;;;15.10;99.90;;;;;;5014667;28;20474;-79
2021/10/14 09:58:01;;;;;;;0.70;0.60;;;15.30;99.90;;;;;;5014654;28;20455;-83
2021/10/14 10:00:30;;;;;;;0.40;0.40;;;15.90;99.90;;;;;;5014674;28;20448;-79
2021/10/14 10:02:59;;;;;;;2.03;0.70;;;16.40;99.90;;;;;;5014518;28;20447;-79
2021/10/14 10:05:27;;;;;;;0.67;0.67;;;17.10;99.90;;;;;;5014504;28;20448;-81
2021/10/14 10:07:54;;;;;;;0.60;0.40;;;18.10;99.90;;;;;;5014452;28;20478;-81
2021/10/14 10:10:24;;;;;;;2.77;0.60;;;18.70;98.30;;;;;;5014473;28;20436;-81
2021/10/14 10:12:52;;;;;;;0.50;0.40;;;19.30;94.70;;;;;;5014079;28;20451;-81
2021/10/14 10:15:37;;;;;;;0.40;0.40;;;19.20;92.50;;;;;;5013956;28;20994;-79
2021/10/14 10:18:03;;;;;;;1.00;0.60;;;18.60;92.80;;;;;;5014004;28;20438;-79
2021/10/14 10:20:39;;;;;;;0.90;0.40;;;18.40;91.60;;;;;;5014153;28;20458;-79
2021/10/14 10:23:06;;;;;;;0.50;0.40;;;18.60;92.30;;;;;;5014289;28;20795;-78
2021/10/14 10:25:38;;;;;;;0.70;0.70;;;18.80;91.50;;;;;;5013862;28;20440;-81
2021/10/14 10:28:07;;;;;;;0.90;0.70;;;19.30;92.00;;;;;;5013803;28;20939;-80
2021/10/14 10:30:37;;;;;;;0.50;0.50;;;19.80;88.70;;;;;;5013954;28;20451;-78
2021/10/14 10:33:05;;;;;;;0.40;0.40;;;20.20;87.00;;;;;;5014063;28;20489;-77
2021/10/14 10:35:39;;;;;;;0.93;0.50;;;19.80;83.70;;;;;;5013949;28;20498;-79
2021/10/14 10:38:15;;;;;;;0.90;0.50;;;19.80;86.00;;;;;;5013696;28;20454;-78
2021/10/14 10:40:44;;;;;;;1.37;0.70;;;19.40;85.50;;;;;;5013598;28;20436;-78
2021/10/14 10:43:13;;;;;;;0.50;0.40;;;18.60;84.50;;;;;;5013590;28;20939;-78
2021/10/14 10:45:52;;;;;;;0.97;0.40;;;17.90;87.10;;;;;;5013898;28;20444;-80
2021/10/14 10:48:22;;;;;;;0.50;0.50;;;17.30;89.30;;;;;;5013462;28;20566;-80
2021/10/14 10:50:51;;;;;;;0.70;0.70;;;16.60;90.40;;;;;;5013775;28;20464;-80
2021/10/14 10:53:21;;;;;;;0.57;0.57;;;16.10;92.30;;;;;;5013721;28;20455;-79
2021/10/14 10:55:51;;;;;;;0.57;0.40;;;15.80;92.70;;;;;;5013075;28;20582;-80
2021/10/14 10:58:44;;;;;;;0.60;0.60;;;15.40;92.70;;;;;;5013581;28;20416;-80
2021/10/14 11:01:11;;;;;;;0.40;0.40;;;15.30;93.90;;;;;;5013599;28;20475;-80
2021/10/14 11:03:39;;;;;;;0.43;0.40;;;15.20;94.70;;;;;;5013375;28;20785;-80
2021/10/14 11:06:10;;;;;;;2.40;0.57;;;15.00;96.20;;;;;;5014122;28;20832;-80
2021/10/14 11:08:38;;;;;;;0.50;0.50;;;15.00;96.50;;;;;;5013612;28;20435;-80
2021/10/14 11:11:07;;;;;;;0.40;0.40;;;14.70;95.40;;;;;;5013617;28;20456;-80
2021/10/14 11:13:36;;;;;;;0.40;0.40;;;14.70;96.80;;;;;;5013507;28;20435;-79
2021/10/14 11:16:04;;;;;;;3.63;0.70;;;14.70;98.20;;;;;;5013463;28;20475;-79
2021/10/14 11:18:32;;;;;;;0.83;0.60;;;14.80;98.40;;;;;;5013194;28;20818;-79
2021/10/14 11:21:01;;;;;;;0.80;0.50;;;14.90;98.80;;;;;;5013331;28;20474;-78
2021/10/14 11:23:30;;;;;;;2.00;0.50;;;14.90;99.40;;;;;;5014245;28;20443;-77
2021/10/14 11:26:07;;;;;;;0.60;0.50;;;14.90;97.00;;;;;;5013379;28;20450;-77
2021/10/14 11:28:50;;;;;;;0.40;0.40;;;14.90;98.20;;;;;;5013143;28;20468;-77
2021/10/14 11:31:25;;;;;;;0.90;0.50;;;14.80;97.90;;;;;;5013338;28;20475;-77
2021/10/14 11:33:53;;;;;;;0.47;0.47;;;14.70;98.60;;;;;;5014251;28;20505;-77
2021/10/14 11:36:21;;;;;;;0.50;0.50;;;14.60;99.50;;;;;;5013222;28;20483;-77
2021/10/14 11:38:58;;;;;;;0.40;0.40;;;14.70;99.40;;;;;;5013735;28;20880;-77
2021/10/14 11:41:26;;;;;;;1.60;0.70;;;14.80;99.00;;;;;;5013242;28;20474;-77
2021/10/14 11:43:57;;;;;;;0.40;0.30;;;14.70;98.50;;;;;;5013008;28;20912;-77
2021/10/14 11:46:25;;;;;;;1.00;0.60;;;14.60;99.20;;;;;;5013308;28;20754;-77
2021/10/14 11:48:56;;;;;;;0.60;0.43;;;14.50;99.90;;;;;;5012839;28;20468;-77
2021/10/14 11:51:23;;;;;;;0.40;0.40;;;14.40;99.90;;;;;;5012903;28;20891;-77
2021/10/14 11:53:56;;;;;;;0.40;0.30;;;14.40;99.90;;;;;;5013251;28;20794;-77
2021/10/14 11:56:23;;;;;;;1.73;0.60;;;14.40;99.60;;;;;;5013132;28;20460;-77
2021/10/14 11:58:51;;;;;;;2.80;0.60;;;14.30;99.60;;;;;;5013211;28;20431;-77
2021/10/14 12:01:21;;;;;;;0.80;0.80;;;14.20;99.90;;;;;;5013119;28;20478;-77
2021/10/14 12:03:50;;;;;;;0.67;0.47;;;14.20;99.90;;;;;;5012611;28;20444;-77
2021/10/14 12:06:17;;;;;;;1.67;1.07;;;14.20;99.90;;;;;;5013090;28;20451;-77
2021/10/14 12:08:45;;;;;;;0.40;0.40;;;14.10;99.90;;;;;;5015254;28;20462;-77
2021/10/14 12:11:19;;;;;;;0.53;0.50;;;14.10;99.90;;;;;;5016207;28;20846;-78
2021/10/14 12:13:57;;;;;;;0.70;0.70;;;13.90;99.90;;;;;;5016568;28;20458;-79
2021/10/14 12:16:25;;;;;;;0.77;0.37;;;13.90;99.90;;;;;;5016516;28;20475;-79
2021/10/14 12:18:52;;;;;;;0.40;0.30;;;13.90;99.90;;;;;;5016485;28;20452;-78
2021/10/14 12:21:33;;;;;;;0.40;0.40;;;13.90;99.90;;;;;;5016712;28;20479;-78
2021/10/14 12:24:05;;;;;;;0.40;0.30;;;13.80;99.90;;;;;;5016389;28;20890;-77
2021/10/14 12:26:36;;;;;;;0.63;0.63;;;13.60;99.90;;;;;;5016877;28;20804;-78
2021/10/14 12:29:27;;;;;;;0.60;0.60;;;13.40;99.90;;;;;;5016362;28;20432;-78
2021/10/14 12:32:11;;;;;;;0.37;0.30;;;13.10;99.90;;;;;;5016225;28;20467;-77
2021/10/14 12:34:47;;;;;;;0.40;0.40;;;13.00;99.90;;;;;;5015854;28;20440;-77
2021/10/14 12:37:15;;;;;;;0.70;0.50;;;13.00;99.90;;;;;;5015372;28;20981;-77
2021/10/14 12:39:43;;;;;;;0.60;0.43;;;12.90;99.90;;;;;;5015733;28;20455;-81
2021/10/14 12:42:11;;;;;;;1.03;0.50;;;12.90;99.90;;;;;;5015887;28;20482;-80
2021/10/14 12:44:59;;;;;;;0.50;0.40;;;12.90;99.90;;;;;;5015982;28;20494;-80
2021/10/14 12:47:41;;;;;;;0.50;0.30;;;12.90;99.90;;;;;;5015779;28;20836;-79
2021/10/14 12:50:17;;;;;;;0.60;0.40;;;12.90;99.90;;;;;;5015209;28;20458;-81
2021/10/14 12:52:44;;;;;;;0.40;0.40;;;12.90;99.90;;;;;;5015647;28;20459;-80
2021/10/14 12:55:13;;;;;;;0.60;0.60;;;12.90;99.90;;;;;;5015678;28;20446;-80
2021/10/14 12:57:40;;;;;;;0.73;0.30;;;12.90;99.90;;;;;;5015483;28;20435;-79
2021/10/14 13:00:10;;;;;;;0.83;0.40;;;12.90;99.90;;;;;;5016505;28;20454;-80